Time;durP1;ratioP1;P1;durP2;ratioP2;P2;SDS_P1;SDS_P2;PMS_P1;PMS_P2;Temp;Humidity;BMP_temperature;BMP_pressure;BME280_temperature;BME280_humidity;BME280_pressure;Samples;Min_cycle;Max_cycle;Signal;HPM_P1;HPM_P2
2022/05/06 00:00:25;;;;;;;53.13;24.20;;;;;;;;;;5005297;28;20183;-71
2022/05/06 00:02:52;;;;;;;82.37;23.37;;;;;;;;;;5013454;28;20175;-69
2022/05/06 00:05:17;;;;;;;55.50;22.97;;;;;;;;;;5004351;28;20175;-68
2022/05/06 00:07:42;;;;;;;73.73;22.43;;;;;;;;;;5013928;28;20186;-71
2022/05/06 00:10:09;;;;;;;67.63;21.00;;;;;;;;;;5014846;28;20559;-71
2022/05/06 00:12:35;;;;;;;46.93;21.47;;;;;;;;;;5025349;28;20182;-70
2022/05/06 00:15:00;;;;;;;66.07;20.07;;;;;;;;;;5012342;28;20214;-68
2022/05/06 00:17:25;;;;;;;67.83;20.27;;;;;;;;;;5007985;28;20189;-70
2022/05/06 00:19:51;;;;;;;49.80;22.50;;;;;;;;;;5006826;28;20171;-69
2022/05/06 00:22:16;;;;;;;69.07;23.87;;;;;;;;;;5011846;28;20193;-71
2022/05/06 00:24:41;;;;;;;47.23;22.43;;;;;;;;;;5013368;28;20278;-70
2022/05/06 00:27:06;;;;;;;77.80;22.23;;;;;;;;;;5007543;28;20238;-69
2022/05/06 00:29:33;;;;;;;104.93;18.87;;;;;;;;;;5010591;28;20185;-68
2022/05/06 00:31:58;;;;;;;69.87;19.03;;;;;;;;;;5008454;28;20200;-70
2022/05/06 00:34:24;;;;;;;50.43;18.07;;;;;;;;;;5009745;28;20714;-71
2022/05/06 00:36:49;;;;;;;37.20;18.23;;;;;;;;;;4997970;28;20180;-70
2022/05/06 00:39:14;;;;;;;38.67;17.70;;;;;;;;;;5006390;28;20179;-70
2022/05/06 00:41:39;;;;;;;53.43;17.17;;;;;;;;;;5009485;28;20210;-68
2022/05/06 00:44:06;;;;;;;41.33;15.83;;;;;;;;;;5002202;28;20724;-68
2022/05/06 00:46:32;;;;;;;53.63;15.80;;;;;;;;;;5012236;28;20186;-68
2022/05/06 00:48:57;;;;;;;44.47;15.10;;;;;;;;;;5009465;28;20176;-68
2022/05/06 00:51:23;;;;;;;23.17;14.97;;;;;;;;;;5014148;28;20578;-70
2022/05/06 00:53:49;;;;;;;42.30;16.40;;;;;;;;;;5014491;28;20665;-68
2022/05/06 00:56:15;;;;;;;60.80;16.97;;;;;;;;;;5007137;28;20180;-71
2022/05/06 00:58:42;;;;;;;30.77;16.60;;;;;;;;;;5006318;28;20187;-68
2022/05/06 01:01:07;;;;;;;29.27;15.87;;;;;;;;;;5009846;28;20723;-67
2022/05/06 01:03:33;;;;;;;27.67;15.13;;;;;;;;;;5002233;28;20180;-68
2022/05/06 01:05:58;;;;;;;28.20;13.93;;;;;;;;;;5001728;28;20182;-70
2022/05/06 01:08:23;;;;;;;34.73;14.33;;;;;;;;;;5011211;28;20194;-70
2022/05/06 01:10:49;;;;;;;30.27;14.07;;;;;;;;;;5010773;28;20241;-71
2022/05/06 01:13:14;;;;;;;32.13;13.53;;;;;;;;;;5009930;28;20178;-70
2022/05/06 01:15:40;;;;;;;32.97;13.80;;;;;;;;;;5007401;28;20206;-70
2022/05/06 01:18:08;;;;;;;31.33;14.73;;;;;;;;;;5009181;28;20278;-69
2022/05/06 01:20:35;;;;;;;33.07;14.03;;;;;;;;;;4999968;28;20200;-70
2022/05/06 01:23:00;;;;;;;22.87;14.27;;;;;;;;;;5004314;28;20186;-70
2022/05/06 01:25:26;;;;;;;38.83;12.53;;;;;;;;;;5010407;28;20696;-69
2022/05/06 01:27:52;;;;;;;35.53;13.03;;;;;;;;;;5005138;28;20191;-69
2022/05/06 01:30:38;;;;;;;23.20;12.90;;;;;;;;;;5010235;28;20309;-70
2022/05/06 01:33:04;;;;;;;24.43;12.33;;;;;;;;;;5007337;28;20182;-68
2022/05/06 01:35:30;;;;;;;34.77;13.33;;;;;;;;;;5002121;28;20465;-70
2022/05/06 01:37:58;;;;;;;35.23;14.70;;;;;;;;;;5007829;28;20182;-71
2022/05/06 01:40:24;;;;;;;46.63;12.23;;;;;;;;;;5007081;28;20176;-70
2022/05/06 01:42:50;;;;;;;37.33;13.43;;;;;;;;;;5004454;28;20194;-68
2022/05/06 01:45:16;;;;;;;30.10;12.70;;;;;;;;;;5008376;28;20714;-68
2022/05/06 01:47:42;;;;;;;36.67;13.30;;;;;;;;;;5003245;28;20538;-71
2022/05/06 01:50:09;;;;;;;37.23;13.93;;;;;;;;;;5004288;28;20210;-70
2022/05/06 01:52:37;;;;;;;61.23;16.47;;;;;;;;;;5012371;28;20203;-70
2022/05/06 01:55:03;;;;;;;68.70;14.63;;;;;;;;;;5014499;28;20198;-70
2022/05/06 01:57:28;;;;;;;24.63;12.40;;;;;;;;;;5009287;28;20663;-72
2022/05/06 01:59:53;;;;;;;53.47;13.33;;;;;;;;;;5009340;28;20182;-70
2022/05/06 02:02:18;;;;;;;52.47;12.97;;;;;;;;;;5001824;28;20631;-71
2022/05/06 02:07:27;;;;;;;36.20;11.67;;;;;;;;;;5009967;28;20189;-70
2022/05/06 02:09:52;;;;;;;62.33;12.23;;;;;;;;;;5004177;28;20624;-68
2022/05/06 02:12:17;;;;;;;29.60;10.83;;;;;;;;;;5011221;28;20254;-70
2022/05/06 02:14:43;;;;;;;28.67;12.93;;;;;;;;;;5009541;28;20644;-70
2022/05/06 02:17:08;;;;;;;55.90;11.70;;;;;;;;;;5011059;28;20183;-71
2022/05/06 02:19:33;;;;;;;32.97;12.17;;;;;;;;;;5009369;28;20310;-68
2022/05/06 02:21:58;;;;;;;35.37;11.00;;;;;;;;;;5010729;28;20202;-70
2022/05/06 02:24:23;;;;;;;52.30;10.87;;;;;;;;;;5009814;28;20195;-71
2022/05/06 02:26:49;;;;;;;38.10;11.93;;;;;;;;;;5011517;28;20213;-70
2022/05/06 02:29:14;;;;;;;27.17;11.77;;;;;;;;;;5009101;28;20571;-70
2022/05/06 02:34:23;;;;;;;83.43;14.27;;;;;;;;;;5011891;28;20218;-71
2022/05/06 02:36:48;;;;;;;22.07;9.90;;;;;;;;;;5011681;28;20174;-70
2022/05/06 02:39:13;;;;;;;37.80;12.00;;;;;;;;;;4998278;28;20258;-70
2022/05/06 02:41:38;;;;;;;51.47;12.53;;;;;;;;;;5004206;28;20209;-70
2022/05/06 02:44:07;;;;;;;29.13;12.00;;;;;;;;;;5004527;28;20190;-68
2022/05/06 02:46:33;;;;;;;44.73;12.93;;;;;;;;;;5005070;28;20235;-71
2022/05/06 02:48:59;;;;;;;17.80;11.70;;;;;;;;;;5001870;28;20661;-71
2022/05/06 02:51:24;;;;;;;47.20;12.07;;;;;;;;;;5008537;28;20242;-68
2022/05/06 02:53:49;;;;;;;58.23;12.17;;;;;;;;;;5013591;28;20186;-68
2022/05/06 02:56:14;;;;;;;46.37;11.90;;;;;;;;;;5013162;28;20189;-70
2022/05/06 02:58:39;;;;;;;51.40;12.53;;;;;;;;;;5007560;28;20189;-70
2022/05/06 03:01:04;;;;;;;32.13;11.23;;;;;;;;;;4999075;28;20287;-70
2022/05/06 03:03:33;;;;;;;75.13;13.10;;;;;;;;;;4997867;28;20205;-70
2022/05/06 03:05:58;;;;;;;48.27;11.63;;;;;;;;;;5008737;28;20178;-70
2022/05/06 03:08:23;;;;;;;44.47;11.37;;;;;;;;;;5008931;28;20185;-70
2022/05/06 03:10:49;;;;;;;19.17;9.40;;;;;;;;;;5003042;28;20282;-70
2022/05/06 03:13:14;;;;;;;20.77;9.57;;;;;;;;;;5006980;28;20648;-72
2022/05/06 03:15:42;;;;;;;48.20;11.23;;;;;;;;;;5010310;28;20213;-69
2022/05/06 03:18:07;;;;;;;40.13;10.40;;;;;;;;;;5005133;28;20198;-69
2022/05/06 03:20:32;;;;;;;29.53;9.23;;;;;;;;;;5009783;28;20227;-70
2022/05/06 03:22:58;;;;;;;39.80;10.70;;;;;;;;;;5005417;28;20695;-70
2022/05/06 03:25:23;;;;;;;27.70;9.70;;;;;;;;;;5006958;28;20182;-72
2022/05/06 03:28:02;;;;;;;22.63;9.60;;;;;;;;;;5008709;28;20261;-70
2022/05/06 03:30:30;;;;;;;68.07;11.43;;;;;;;;;;5001466;28;20205;-70
2022/05/06 03:32:55;;;;;;;30.80;11.23;;;;;;;;;;5008495;28;20190;-71
2022/05/06 03:35:20;;;;;;;41.80;10.60;;;;;;;;;;5001769;28;20211;-70
2022/05/06 03:37:46;;;;;;;22.67;9.73;;;;;;;;;;5006295;28;20203;-70
2022/05/06 03:40:11;;;;;;;25.17;11.27;;;;;;;;;;5009380;28;20171;-70
2022/05/06 03:42:36;;;;;;;20.00;9.70;;;;;;;;;;5003807;28;20609;-71
2022/05/06 03:45:03;;;;;;;42.57;12.60;;;;;;;;;;5009060;28;20182;-70
2022/05/06 03:47:28;;;;;;;36.60;12.47;;;;;;;;;;5004233;28;20543;-70
2022/05/06 03:52:37;;;;;;;24.10;11.50;;;;;;;;;;5010737;28;20247;-70
2022/05/06 03:55:03;;;;;;;24.60;13.33;;;;;;;;;;5008324;28;20700;-71
2022/05/06 03:57:28;;;;;;;46.40;12.73;;;;;;;;;;5006284;28;20186;-70
2022/05/06 03:59:54;;;;;;;29.70;12.00;;;;;;;;;;5009249;28;20184;-71
2022/05/06 04:02:19;;;;;;;35.23;12.50;;;;;;;;;;5006864;28;20218;-69
2022/05/06 04:04:45;;;;;;;112.83;15.60;;;;;;;;;;5010154;28;20683;-69
2022/05/06 04:07:10;;;;;;;34.43;12.60;;;;;;;;;;5010317;28;20187;-69
2022/05/06 04:09:35;;;;;;;60.87;12.53;;;;;;;;;;5008660;28;20230;-69
2022/05/06 04:12:00;;;;;;;28.17;12.47;;;;;;;;;;5004977;28;20202;-71
2022/05/06 04:14:25;;;;;;;41.20;12.37;;;;;;;;;;5007398;28;20668;-71
2022/05/06 04:16:51;;;;;;;40.50;13.23;;;;;;;;;;5000447;28;20184;-71
2022/05/06 04:19:16;;;;;;;30.20;11.63;;;;;;;;;;5005860;28;20704;-71
2022/05/06 04:24:25;;;;;;;34.87;10.13;;;;;;;;;;5010626;28;20278;-70
2022/05/06 04:26:50;;;;;;;33.50;10.83;;;;;;;;;;5014459;28;20644;-71
2022/05/06 04:29:15;;;;;;;32.90;10.87;;;;;;;;;;5010694;28;20218;-70
2022/05/06 04:31:40;;;;;;;29.93;10.80;;;;;;;;;;5011907;28;20673;-68
2022/05/06 04:34:07;;;;;;;43.83;10.57;;;;;;;;;;5012341;28;20275;-70
2022/05/06 04:36:32;;;;;;;34.77;10.40;;;;;;;;;;5010861;28;20678;-70
2022/05/06 04:38:57;;;;;;;17.80;9.33;;;;;;;;;;5006575;28;20175;-70
2022/05/06 04:41:23;;;;;;;37.87;9.53;;;;;;;;;;5006261;28;20203;-70
2022/05/06 04:43:48;;;;;;;29.47;9.60;;;;;;;;;;5007971;28;20641;-68
2022/05/06 04:46:13;;;;;;;30.40;10.07;;;;;;;;;;5002748;28;20190;-71
2022/05/06 04:48:38;;;;;;;22.20;9.27;;;;;;;;;;5005965;28;20275;-71
2022/05/06 04:51:04;;;;;;;31.47;10.23;;;;;;;;;;5007177;28;20677;-69
2022/05/06 04:53:29;;;;;;;26.50;9.20;;;;;;;;;;5011555;28;20190;-71
2022/05/06 04:55:54;;;;;;;50.70;10.13;;;;;;;;;;5011866;28;20213;-71
2022/05/06 04:58:19;;;;;;;26.40;9.60;;;;;;;;;;5007104;28;20191;-71
2022/05/06 05:00:45;;;;;;;20.90;8.80;;;;;;;;;;5003980;28;20246;-71
2022/05/06 05:03:10;;;;;;;33.33;9.73;;;;;;;;;;5007747;28;20213;-70
2022/05/06 05:05:35;;;;;;;55.00;9.87;;;;;;;;;;5003614;28;20708;-69
2022/05/06 05:08:01;;;;;;;23.70;8.33;;;;;;;;;;5012305;28;20186;-70
2022/05/06 05:10:26;;;;;;;50.87;9.20;;;;;;;;;;5011293;28;20645;-70
2022/05/06 05:12:51;;;;;;;37.33;8.23;;;;;;;;;;5006555;28;20243;-71
2022/05/06 05:15:17;;;;;;;50.23;8.90;;;;;;;;;;5001219;28;20292;-71
2022/05/06 05:17:45;;;;;;;33.67;8.60;;;;;;;;;;5010653;28;20202;-68
2022/05/06 05:20:14;;;;;;;37.50;9.47;;;;;;;;;;5009651;28;20241;-71
2022/05/06 05:22:39;;;;;;;27.20;8.50;;;;;;;;;;5011028;28;21187;-71
2022/05/06 05:25:05;;;;;;;30.17;8.40;;;;;;;;;;5009977;28;20253;-70
2022/05/06 05:27:31;;;;;;;29.23;9.07;;;;;;;;;;5007505;28;20186;-70
2022/05/06 05:29:56;;;;;;;14.77;7.87;;;;;;;;;;5010839;28;20217;-70
2022/05/06 05:32:21;;;;;;;16.93;7.80;;;;;;;;;;5008188;28;20207;-70
2022/05/06 05:34:47;;;;;;;25.47;8.30;;;;;;;;;;5011955;28;20206;-70
2022/05/06 05:37:12;;;;;;;10.20;7.50;;;;;;;;;;5011534;28;20189;-70
2022/05/06 05:39:37;;;;;;;10.70;7.90;;;;;;;;;;5014420;28;20179;-71
2022/05/06 05:42:05;;;;;;;22.37;9.60;;;;;;;;;;5011970;28;20241;-70
2022/05/06 05:49:58;;;;;;;13.90;7.60;;;;;;;;;;5010210;28;20711;-70
2022/05/06 05:52:23;;;;;;;16.23;7.33;;;;;;;;;;5010435;28;20226;-70
2022/05/06 05:54:48;;;;;;;39.47;8.03;;;;;;;;;;5013587;28;20202;-70
2022/05/06 05:57:13;;;;;;;28.30;7.80;;;;;;;;;;5006565;28;20187;-70
2022/05/06 05:59:38;;;;;;;22.97;9.10;;;;;;;;;;5010950;28;20543;-70
2022/05/06 06:02:04;;;;;;;28.63;8.90;;;;;;;;;;5005449;28;20251;-70
2022/05/06 06:04:29;;;;;;;22.13;9.43;;;;;;;;;;5009225;28;20190;-70
2022/05/06 06:06:54;;;;;;;15.93;8.93;;;;;;;;;;5010451;28;20225;-70
2022/05/06 06:09:22;;;;;;;16.20;9.10;;;;;;;;;;5005918;28;20686;-70
2022/05/06 06:11:51;;;;;;;15.20;9.77;;;;;;;;;;5008658;28;20609;-70
2022/05/06 06:14:16;;;;;;;18.50;10.10;;;;;;;;;;4995550;28;20208;-70
2022/05/06 06:16:42;;;;;;;22.90;10.23;;;;;;;;;;5012384;28;20183;-70
2022/05/06 06:19:07;;;;;;;14.37;9.10;;;;;;;;;;5009977;28;20710;-70
2022/05/06 06:21:33;;;;;;;18.70;10.27;;;;;;;;;;5004561;28;20210;-70
2022/05/06 06:23:58;;;;;;;24.57;10.53;;;;;;;;;;5005291;28;20186;-71
2022/05/06 06:26:23;;;;;;;17.70;9.80;;;;;;;;;;5000913;28;20218;-70
2022/05/06 06:28:48;;;;;;;15.63;10.97;;;;;;;;;;4997081;28;20187;-71
2022/05/06 06:31:14;;;;;;;13.73;9.83;;;;;;;;;;5005944;28;20199;-71
2022/05/06 06:33:39;;;;;;;14.93;9.77;;;;;;;;;;5007487;28;20558;-70
2022/05/06 06:36:05;;;;;;;12.13;10.10;;;;;;;;;;5007210;28;20210;-70
2022/05/06 06:38:30;;;;;;;15.00;10.00;;;;;;;;;;5012520;28;20193;-70
2022/05/06 06:40:55;;;;;;;14.93;11.23;;;;;;;;;;5004781;28;20191;-71
2022/05/06 06:43:21;;;;;;;16.90;10.97;;;;;;;;;;5008270;28;20268;-71
2022/05/06 06:45:46;;;;;;;16.70;11.50;;;;;;;;;;5007095;28;20194;-71
2022/05/06 06:48:11;;;;;;;13.43;10.57;;;;;;;;;;5006112;28;20175;-68
2022/05/06 06:50:39;;;;;;;21.40;11.75;;;;;;;;;;5008024;28;20231;-71
2022/05/06 06:53:04;;;;;;;16.97;12.07;;;;;;;;;;5000255;28;20183;-68
2022/05/06 06:55:29;;;;;;;16.45;11.57;;;;;;;;;;5009253;28;20699;-70
2022/05/06 06:57:54;;;;;;;18.13;12.45;;;;;;;;;;5004377;28;20554;-68
2022/05/06 07:00:19;;;;;;;18.20;12.32;;;;;;;;;;5006782;28;20755;-68
2022/05/06 07:02:45;;;;;;;14.38;10.73;;;;;;;;;;5005077;28;20183;-70
2022/05/06 07:05:10;;;;;;;15.80;11.45;;;;;;;;;;5007217;28;20186;-71
2022/05/06 07:13:03;;;;;;;22.77;13.40;;;;;;;;;;5001396;28;20181;-71
2022/05/06 07:15:31;;;;;;;21.60;12.27;;;;;;;;;;4989584;28;20202;-70
2022/05/06 07:17:56;;;;;;;22.90;13.60;;;;;;;;;;4997705;28;20424;-70
2022/05/06 07:20:22;;;;;;;26.23;14.30;;;;;;;;;;5007799;28;20190;-70
2022/05/06 07:22:47;;;;;;;25.67;14.00;;;;;;;;;;5004711;28;20450;-71
2022/05/06 07:25:12;;;;;;;21.30;13.47;;;;;;;;;;5005690;28;20257;-70
2022/05/06 07:27:37;;;;;;;19.63;13.10;;;;;;;;;;5004591;28;20507;-70
2022/05/06 07:30:03;;;;;;;20.77;12.13;;;;;;;;;;5004983;28;20270;-70
2022/05/06 07:32:28;;;;;;;13.23;10.18;;;;;;;;;;5005206;28;20282;-71
2022/05/06 07:34:53;;;;;;;12.75;9.85;;;;;;;;;;4999296;28;20211;-70
2022/05/06 07:37:18;;;;;;;12.70;9.35;;;;;;;;;;5009445;28;20182;-70
2022/05/06 07:39:44;;;;;;;11.38;9.85;;;;;;;;;;5014850;28;20167;-70
2022/05/06 07:42:12;;;;;;;11.85;8.90;;;;;;;;;;5006614;28;20191;-70
2022/05/06 07:44:37;;;;;;;10.02;8.50;;;;;;;;;;5008550;28;20273;-71
2022/05/06 07:47:02;;;;;;;9.68;8.07;;;;;;;;;;5005232;28;20175;-71
2022/05/06 07:49:27;;;;;;;10.38;8.98;;;;;;;;;;5001202;28;20195;-70
2022/05/06 07:51:53;;;;;;;8.90;8.00;;;;;;;;;;5009587;28;20620;-70
2022/05/06 07:54:18;;;;;;;8.95;8.07;;;;;;;;;;5012526;28;20260;-70
2022/05/06 07:56:43;;;;;;;9.98;7.88;;;;;;;;;;5014370;28;20180;-69
2022/05/06 07:59:08;;;;;;;9.47;7.90;;;;;;;;;;5011703;28;20175;-71
2022/05/06 08:04:33;;;;;;;10.20;8.63;;;;;;;;;;5010956;28;20426;-70
2022/05/06 08:06:58;;;;;;;9.45;7.93;;;;;;;;;;5012509;28;20187;-68
2022/05/06 08:09:24;;;;;;;9.02;8.10;;;;;;;;;;5013056;28;20182;-70
2022/05/06 08:11:49;;;;;;;11.63;9.32;;;;;;;;;;5012309;28;20348;-71
2022/05/06 08:14:16;;;;;;;9.90;8.70;;;;;;;;;;5011305;28;20230;-71
2022/05/06 08:16:41;;;;;;;10.85;8.60;;;;;;;;;;5012838;28;20262;-68
2022/05/06 08:19:06;;;;;;;10.65;9.18;;;;;;;;;;5005095;28;20266;-68
2022/05/06 08:21:31;;;;;;;9.43;8.00;;;;;;;;;;5013905;28;20689;-69
2022/05/06 08:23:57;;;;;;;10.85;9.02;;;;;;;;;;5010415;28;20225;-71
2022/05/06 08:26:22;;;;;;;10.60;9.13;;;;;;;;;;5010926;28;20186;-71
2022/05/06 08:28:47;;;;;;;14.45;9.82;;;;;;;;;;5010463;28;20578;-70
2022/05/06 08:31:12;;;;;;;12.30;10.63;;;;;;;;;;5011333;28;20210;-69
2022/05/06 08:33:37;;;;;;;12.77;10.70;;;;;;;;;;5013604;28;20408;-68
2022/05/06 08:36:04;;;;;;;12.52;10.82;;;;;;;;;;5014852;28;20462;-69
2022/05/06 08:38:30;;;;;;;12.60;10.52;;;;;;;;;;5009871;28;20633;-69
2022/05/06 08:40:55;;;;;;;14.20;11.77;;;;;;;;;;5009406;28;20210;-69
2022/05/06 08:43:21;;;;;;;15.82;11.88;;;;;;;;;;5012204;28;20249;-69
2022/05/06 08:51:19;;;;;;;14.80;10.98;;;;;;;;;;5014707;28;20210;-68
2022/05/06 08:53:44;;;;;;;12.48;10.18;;;;;;;;;;5013182;28;20179;-69
2022/05/06 08:56:09;;;;;;;12.98;10.60;;;;;;;;;;5012547;28;20611;-68
2022/05/06 08:58:36;;;;;;;11.50;10.30;;;;;;;;;;5011686;28;20641;-68
2022/05/06 09:01:06;;;;;;;12.95;10.55;;;;;;;;;;5012122;28;20202;-69
2022/05/06 09:03:31;;;;;;;15.13;10.95;;;;;;;;;;5017218;28;20229;-68
2022/05/06 09:05:58;;;;;;;13.02;10.68;;;;;;;;;;5011584;28;20182;-69
2022/05/06 09:08:33;;;;;;;12.02;10.27;;;;;;;;;;5007814;28;20180;-68
2022/05/06 09:11:00;;;;;;;11.20;9.65;;;;;;;;;;5010383;28;20260;-69
2022/05/06 09:13:25;;;;;;;12.27;10.68;;;;;;;;;;5013971;28;20221;-69
2022/05/06 09:18:35;;;;;;;14.23;10.60;;;;;;;;;;5010652;28;20226;-69
2022/05/06 09:21:10;;;;;;;12.07;10.77;;;;;;;;;;5010880;28;20200;-69
2022/05/06 09:23:35;;;;;;;13.40;10.48;;;;;;;;;;5016169;28;20629;-69
2022/05/06 09:26:00;;;;;;;14.32;11.05;;;;;;;;;;5011395;28;20215;-68
2022/05/06 09:28:27;;;;;;;15.77;11.73;;;;;;;;;;5009836;28;20215;-69
2022/05/06 09:31:08;;;;;;;14.60;11.43;;;;;;;;;;5012079;28;20448;-69
2022/05/06 09:33:35;;;;;;;11.98;10.52;;;;;;;;;;5007992;28;20194;-69
2022/05/06 09:36:20;;;;;;;13.02;10.45;;;;;;;;;;5011370;28;20206;-69
2022/05/06 09:39:02;;;;;;;14.20;10.98;;;;;;;;;;5010236;28;20197;-69
2022/05/06 09:41:27;;;;;;;14.32;11.07;;;;;;;;;;5003143;28;20195;-69
2022/05/06 09:43:59;;;;;;;13.03;10.97;;;;;;;;;;5011526;28;20183;-69
2022/05/06 09:46:24;;;;;;;14.98;11.77;;;;;;;;;;5007796;28;20567;-69
2022/05/06 09:48:56;;;;;;;13.60;11.67;;;;;;;;;;5009259;28;20179;-68
2022/05/06 09:51:28;;;;;;;15.77;11.93;;;;;;;;;;5006851;28;21549;-69
2022/05/06 09:53:55;;;;;;;15.57;12.38;;;;;;;;;;5010659;28;20205;-69
2022/05/06 09:56:20;;;;;;;15.85;11.85;;;;;;;;;;5010590;28;20213;-69
2022/05/06 09:58:45;;;;;;;15.65;12.07;;;;;;;;;;5006690;28;20179;-69
2022/05/06 10:01:11;;;;;;;18.25;14.27;;;;;;;;;;5010078;28;20222;-69
2022/05/06 10:03:37;;;;;;;20.50;13.57;;;;;;;;;;5008504;28;20180;-69
2022/05/06 10:06:04;;;;;;;18.52;14.77;;;;;;;;;;5006907;28;20482;-69
2022/05/06 10:08:30;;;;;;;16.58;14.57;;;;;;;;;;5007182;28;20179;-69
2022/05/06 10:10:58;;;;;;;17.13;14.13;;;;;;;;;;5010757;28;20206;-69
2022/05/06 10:13:26;;;;;;;21.35;16.48;;;;;;;;;;5010561;28;20199;-69
2022/05/06 10:15:52;;;;;;;19.30;15.52;;;;;;;;;;5006820;28;20206;-69
2022/05/06 10:18:32;;;;;;;23.27;17.13;;;;;;;;;;5011109;28;20343;-68
2022/05/06 10:20:58;;;;;;;19.20;16.88;;;;;;;;;;5011799;28;20202;-69
2022/05/06 10:23:41;;;;;;;21.67;17.30;;;;;;;;;;5012358;28;20170;-69
2022/05/06 10:26:06;;;;;;;20.63;16.88;;;;;;;;;;5008910;28;20665;-68
2022/05/06 10:34:09;;;;;;;22.92;18.65;;;;;;;;;;5011577;28;20283;-69
2022/05/06 10:36:41;;;;;;;21.63;18.70;;;;;;;;;;5006058;28;20181;-69
2022/05/06 10:39:17;;;;;;;22.23;18.95;;;;;;;;;;5006068;28;20205;-69
2022/05/06 10:41:58;;;;;;;19.33;17.23;;;;;;;;;;4995356;28;20205;-68
2022/05/06 10:44:42;;;;;;;21.38;17.38;;;;;;;;;;5000222;28;20232;-69
2022/05/06 10:47:13;;;;;;;21.85;18.17;;;;;;;;;;5008338;28;20182;-70
2022/05/06 10:49:38;;;;;;;18.80;16.80;;;;;;;;;;5002368;28;20210;-69
2022/05/06 10:52:15;;;;;;;19.05;16.83;;;;;;;;;;5003570;28;20237;-69
2022/05/06 10:54:47;;;;;;;17.73;14.57;;;;;;;;;;5008029;28;20209;-69
2022/05/06 10:57:13;;;;;;;16.67;14.85;;;;;;;;;;5002340;28;20657;-69
2022/05/06 10:59:51;;;;;;;17.75;13.98;;;;;;;;;;5000546;28;20735;-69
2022/05/06 11:02:17;;;;;;;15.85;13.98;;;;;;;;;;5005700;28;20218;-69
2022/05/06 11:04:52;;;;;;;16.77;14.27;;;;;;;;;;5010035;28;20560;-69
2022/05/06 11:07:17;;;;;;;17.60;13.50;;;;;;;;;;5011281;28;20183;-69
2022/05/06 11:09:43;;;;;;;17.90;14.85;;;;;;;;;;5006317;28;20174;-68
2022/05/06 11:12:08;;;;;;;16.13;12.73;;;;;;;;;;5011372;28;20202;-69
2022/05/06 11:14:33;;;;;;;15.25;11.50;;;;;;;;;;5009236;28;20203;-69
2022/05/06 11:17:18;;;;;;;15.07;12.50;;;;;;;;;;5007346;28;20205;-69
2022/05/06 11:19:43;;;;;;;18.13;12.98;;;;;;;;;;5005121;28;20428;-69
2022/05/06 11:22:08;;;;;;;17.37;12.63;;;;;;;;;;5006499;28;20207;-69
2022/05/06 11:24:34;;;;;;;16.35;13.43;;;;;;;;;;5010013;28;20194;-68
2022/05/06 11:27:11;;;;;;;17.67;13.43;;;;;;;;;;5010835;28;20240;-69
2022/05/06 11:29:49;;;;;;;15.23;12.60;;;;;;;;;;5009717;28;20183;-69
2022/05/06 11:32:15;;;;;;;16.05;13.43;;;;;;;;;;5010669;28;20205;-69
2022/05/06 11:34:46;;;;;;;15.65;11.77;;;;;;;;;;5008139;28;20203;-69
2022/05/06 11:37:19;;;;;;;13.27;11.88;;;;;;;;;;5009288;28;20198;-69
2022/05/06 11:39:44;;;;;;;15.02;12.90;;;;;;;;;;5010608;28;20266;-69
2022/05/06 11:42:22;;;;;;;13.23;11.83;;;;;;;;;;5008224;28;20708;-69
2022/05/06 11:47:41;;;;;;;15.77;13.32;;;;;;;;;;5004600;28;20257;-69
2022/05/06 11:50:06;;;;;;;16.95;12.60;;;;;;;;;;5007016;28;20187;-69
2022/05/06 11:52:32;;;;;;;15.48;12.65;;;;;;;;;;5005250;28;20213;-69
2022/05/06 11:54:57;;;;;;;16.50;14.27;;;;;;;;;;5014254;28;20207;-69
2022/05/06 11:57:23;;;;;;;16.17;13.43;;;;;;;;;;5008508;28;20210;-69
2022/05/06 11:59:48;;;;;;;15.40;13.80;;;;;;;;;;5009917;28;20307;-69
2022/05/06 12:02:13;;;;;;;14.77;13.27;;;;;;;;;;5009879;28;20523;-69
2022/05/06 12:04:38;;;;;;;14.60;12.70;;;;;;;;;;5003175;28;20424;-69
2022/05/06 12:07:04;;;;;;;15.47;13.53;;;;;;;;;;5009345;28;20183;-69
2022/05/06 12:09:29;;;;;;;15.48;13.88;;;;;;;;;;5007988;28;20416;-69
2022/05/06 12:12:08;;;;;;;15.53;13.77;;;;;;;;;;5010136;28;20595;-69
2022/05/06 12:14:33;;;;;;;15.38;13.82;;;;;;;;;;5010957;28;20470;-69
2022/05/06 12:16:59;;;;;;;19.02;13.30;;;;;;;;;;5012968;28;20176;-68
2022/05/06 12:19:37;;;;;;;14.52;13.10;;;;;;;;;;5006989;28;20171;-69
2022/05/06 12:22:05;;;;;;;14.88;12.38;;;;;;;;;;5011684;28;20208;-69
2022/05/06 12:24:42;;;;;;;14.77;12.10;;;;;;;;;;5010085;28;20677;-69
2022/05/06 12:27:08;;;;;;;14.60;13.07;;;;;;;;;;5010408;28;20187;-69
2022/05/06 12:29:37;;;;;;;16.00;13.73;;;;;;;;;;5007171;28;20172;-69
2022/05/06 12:32:06;;;;;;;15.45;12.30;;;;;;;;;;5011761;28;20194;-69
2022/05/06 12:34:31;;;;;;;14.40;13.00;;;;;;;;;;5010399;28;20807;-69
2022/05/06 12:37:12;;;;;;;12.93;11.63;;;;;;;;;;5008955;28;20175;-69
2022/05/06 12:39:39;;;;;;;11.63;9.88;;;;;;;;;;5009013;28;20253;-69
2022/05/06 12:42:12;;;;;;;10.15;9.25;;;;;;;;;;5010056;28;20203;-69
2022/05/06 12:44:37;;;;;;;10.75;8.90;;;;;;;;;;5011595;28;20191;-68
2022/05/06 12:47:13;;;;;;;9.97;9.07;;;;;;;;;;5013691;28;20186;-69
2022/05/06 12:49:41;;;;;;;10.63;9.07;;;;;;;;;;5010576;28;20431;-69
2022/05/06 12:52:10;;;;;;;10.45;9.45;;;;;;;;;;5012043;28;20195;-69
2022/05/06 12:54:35;;;;;;;9.63;8.77;;;;;;;;;;5006655;28;20223;-69
2022/05/06 12:57:01;;;;;;;10.20;9.20;;;;;;;;;;5013126;28;20201;-69
2022/05/06 12:59:26;;;;;;;10.48;9.57;;;;;;;;;;5009574;28;20258;-69
2022/05/06 13:01:52;;;;;;;10.75;9.57;;;;;;;;;;5011097;28;20731;-69
2022/05/06 13:04:17;;;;;;;11.65;10.55;;;;;;;;;;5013273;28;20652;-68
2022/05/06 13:06:43;;;;;;;12.50;11.40;;;;;;;;;;5013150;28;20179;-69
2022/05/06 13:09:09;;;;;;;12.07;10.88;;;;;;;;;;5008303;28;20179;-69
2022/05/06 13:11:34;;;;;;;11.65;10.45;;;;;;;;;;5010946;28;20199;-69
2022/05/06 13:13:59;;;;;;;11.43;10.38;;;;;;;;;;5011534;28;20470;-69
2022/05/06 13:16:25;;;;;;;11.25;10.18;;;;;;;;;;5012184;28;20202;-69
2022/05/06 13:18:52;;;;;;;13.18;10.75;;;;;;;;;;5010046;28;20183;-69
2022/05/06 13:21:17;;;;;;;12.02;10.07;;;;;;;;;;5013015;28;20199;-69
2022/05/06 13:23:42;;;;;;;11.43;10.25;;;;;;;;;;5010318;28;20179;-69
2022/05/06 13:26:08;;;;;;;13.18;10.02;;;;;;;;;;5011200;28;20183;-69
2022/05/06 13:28:33;;;;;;;12.35;11.30;;;;;;;;;;5008936;28;20193;-70
2022/05/06 13:30:59;;;;;;;12.30;11.20;;;;;;;;;;5009384;28;20207;-69
2022/05/06 13:33:24;;;;;;;11.97;10.87;;;;;;;;;;5008411;28;20515;-69
2022/05/06 13:35:49;;;;;;;12.70;11.30;;;;;;;;;;5011247;28;20207;-69
2022/05/06 13:38:14;;;;;;;12.70;11.43;;;;;;;;;;5010573;28;20449;-69
2022/05/06 13:40:39;;;;;;;12.27;11.00;;;;;;;;;;5011479;28;20206;-69
2022/05/06 13:43:05;;;;;;;11.87;10.67;;;;;;;;;;5011103;28;20183;-69
2022/05/06 13:45:30;;;;;;;12.20;11.07;;;;;;;;;;5010575;28;20431;-69
2022/05/06 13:47:55;;;;;;;10.73;9.67;;;;;;;;;;5010823;28;20326;-69
2022/05/06 13:50:20;;;;;;;11.17;10.23;;;;;;;;;;5001255;28;20187;-69
2022/05/06 13:52:45;;;;;;;12.88;9.95;;;;;;;;;;5011822;28;20258;-69
2022/05/06 13:55:11;;;;;;;12.25;11.13;;;;;;;;;;5008132;28;20238;-69
2022/05/06 14:00:20;;;;;;;11.32;10.07;;;;;;;;;;5005455;28;20222;-69
2022/05/06 14:02:46;;;;;;;11.25;10.05;;;;;;;;;;5008036;28;20677;-69
2022/05/06 14:05:12;;;;;;;11.55;9.75;;;;;;;;;;5005445;28;20183;-70
2022/05/06 14:07:37;;;;;;;11.57;10.40;;;;;;;;;;5007123;28;20198;-69
2022/05/06 14:10:09;;;;;;;10.30;9.23;;;;;;;;;;5058635;28;20549;-69
2022/05/06 14:12:35;;;;;;;11.45;10.35;;;;;;;;;;5047767;28;20266;-69
2022/05/06 14:15:00;;;;;;;11.25;10.25;;;;;;;;;;5041321;28;20675;-69
2022/05/06 14:17:25;;;;;;;12.40;11.30;;;;;;;;;;5042008;28;20186;-68
2022/05/06 14:19:53;;;;;;;12.30;11.25;;;;;;;;;;5046766;28;20712;-69
2022/05/06 14:22:18;;;;;;;11.70;10.60;;;;;;;;;;5049673;28;20590;-68
2022/05/06 14:24:45;;;;;;;10.45;9.43;;;;;;;;;;5049638;28;20185;-68
2022/05/06 14:27:11;;;;;;;13.30;11.00;;;;;;;;;;5047024;28;20173;-68
2022/05/06 14:29:36;;;;;;;10.65;9.63;;;;;;;;;;5043330;28;20216;-68
2022/05/06 14:32:01;;;;;;;9.17;8.27;;;;;;;;;;5040555;28;20388;-68
2022/05/06 14:34:26;;;;;;;11.98;10.88;;;;;;;;;;5043597;28;20415;-69
2022/05/06 14:36:51;;;;;;;12.67;11.47;;;;;;;;;;5046582;28;20170;-69
2022/05/06 14:39:17;;;;;;;11.33;10.23;;;;;;;;;;5047557;28;20398;-68
2022/05/06 14:41:42;;;;;;;10.60;9.60;;;;;;;;;;5047084;28;20458;-69
2022/05/06 14:44:08;;;;;;;9.90;9.00;;;;;;;;;;5042181;28;20426;-69
2022/05/06 14:46:33;;;;;;;10.15;9.25;;;;;;;;;;5046623;28;20228;-69
2022/05/06 14:48:58;;;;;;;11.53;10.53;;;;;;;;;;5047109;28;20232;-69
2022/05/06 14:51:24;;;;;;;10.70;9.80;;;;;;;;;;5038535;28;20915;-69
2022/05/06 14:53:49;;;;;;;10.85;10.00;;;;;;;;;;5046746;28;20170;-69
2022/05/06 14:56:14;;;;;;;12.47;11.37;;;;;;;;;;5046882;28;20180;-68
2022/05/06 14:58:39;;;;;;;11.95;10.60;;;;;;;;;;5044745;28;20509;-69
2022/05/06 15:01:06;;;;;;;11.95;10.90;;;;;;;;;;5046410;28;20306;-68